Time;durP1;ratioP1;P1;durP2;ratioP2;P2;SDS_P1;SDS_P2;PMS_P1;PMS_P2;Temp;Humidity;BMP_temperature;BMP_pressure;BME280_temperature;BME280_humidity;BME280_pressure;Samples;Min_cycle;Max_cycle;Signal;HPM_P1;HPM_P2
2022/11/05 00:10:28;;;;;;;13.10;8.30;;;;;;;30.13;24.35;97211.72;6245596;23;20386;-79
2022/11/05 00:18:27;;;;;;;9.90;6.43;;;;;;;31.29;22.92;97227.16;6247906;23;20073;-80
2022/11/05 00:20:53;;;;;;;10.93;7.63;;;;;;;31.42;22.84;97221.03;6248635;23;20057;-79
2022/11/05 00:26:06;;;;;;;9.32;6.78;;;;;;;31.64;22.66;97235.44;6247369;23;20441;-79
2022/11/05 00:28:34;;;;;;;10.80;6.68;;;;;;;31.60;22.66;97246.22;6248571;22;20038;-80
2022/11/05 00:31:05;;;;;;;10.02;6.18;;;;;;;31.51;22.75;97246.41;6248737;22;20004;-80
2022/11/05 00:33:32;;;;;;;10.45;7.80;;;;;;;30.86;23.57;97245.28;6248866;22;20015;-79
2022/11/05 00:35:58;;;;;;;11.80;7.53;;;;;;;29.91;24.74;97248.25;6248757;23;20067;-80
2022/11/05 00:38:24;;;;;;;9.77;7.43;;;;;;;30.05;24.48;97248.19;6248436;23;20058;-80
2022/11/05 00:40:50;;;;;;;10.18;7.50;;;;;;;29.82;24.84;97243.50;6248827;23;20011;-80
2022/11/05 00:46:01;;;;;;;10.60;7.30;;;;;;;28.47;26.78;97226.00;6247758;22;20069;-80
2022/11/05 00:51:11;;;;;;;9.52;7.13;;;;;;;29.86;24.69;97223.47;6247640;23;20070;-79
2022/11/05 00:53:37;;;;;;;12.85;7.70;;;;;;;30.29;24.28;97219.66;6248666;23;20016;-79
2022/11/05 00:56:03;;;;;;;11.85;8.00;;;;;;;30.70;23.70;97214.72;6249020;23;20421;-79
2022/11/05 00:58:29;;;;;;;9.98;7.32;;;;;;;31.04;23.19;97215.84;6247122;23;20103;-79
2022/11/05 01:00:57;;;;;;;10.10;7.45;;;;;;;31.28;22.67;97216.28;6248030;23;20008;-79
2022/11/05 01:03:30;;;;;;;8.55;6.15;;;;;;;31.31;22.62;97227.41;6248912;22;20012;-79
2022/11/05 01:06:14;;;;;;;11.35;8.00;;;;;;;31.30;22.44;97228.69;6248901;22;20008;-80
2022/11/05 01:08:41;;;;;;;11.98;7.88;;;;;;;31.22;22.75;97229.66;6246869;22;20319;-79
2022/11/05 01:11:35;;;;;;;10.18;7.32;;;;;;;31.32;22.86;97231.03;6248198;22;20008;-79
2022/11/05 01:14:04;;;;;;;10.15;6.93;;;;;;;31.45;22.25;97227.78;6247163;22;20000;-79
2022/11/05 01:16:31;;;;;;;10.10;6.50;;;;;;;31.45;22.65;97230.63;6247709;22;20074;-80
2022/11/05 01:18:57;;;;;;;10.10;7.57;;;;;;;31.31;22.55;97229.47;6247296;23;20019;-80
2022/11/05 01:21:23;;;;;;;11.35;7.40;;;;;;;31.14;22.92;97228.53;6248691;23;20328;-80
2022/11/05 01:23:49;;;;;;;8.85;6.72;;;;;;;31.21;22.85;97228.09;6248769;23;20070;-80
2022/11/05 01:26:15;;;;;;;12.18;7.82;;;;;;;30.22;24.08;97231.41;6246950;23;20012;-79
2022/11/05 01:28:41;;;;;;;12.27;8.23;;;;;;;30.22;24.12;97239.91;6246130;23;20019;-79
2022/11/05 01:31:07;;;;;;;10.85;7.45;;;;;;;29.06;26.09;97264.34;6246048;23;20008;-80
2022/11/05 01:33:33;;;;;;;9.80;7.10;;;;;;;27.85;27.64;97254.94;6246413;22;20004;-80
2022/11/05 01:35:59;;;;;;;11.73;8.27;;;;;;;27.05;29.11;97256.88;6247206;23;20012;-80
2022/11/05 01:38:25;;;;;;;13.02;7.97;;;;;;;28.17;27.09;97261.06;6245617;23;20043;-80
2022/11/05 01:40:52;;;;;;;12.60;8.70;;;;;;;28.45;26.72;97254.69;6246615;23;20079;-80
2022/11/05 01:43:21;;;;;;;10.48;6.63;;;;;;;29.39;25.62;97272.63;6246351;22;20083;-79
2022/11/05 01:45:55;;;;;;;8.32;6.50;;;;;;;30.13;24.61;97276.09;6244179;23;20016;-79
2022/11/05 01:48:33;;;;;;;10.23;7.05;;;;;;;30.50;23.99;97271.44;6245247;22;20014;-80
2022/11/05 01:50:59;;;;;;;8.68;6.78;;;;;;;30.62;23.96;97270.28;6246579;22;20012;-79
2022/11/05 01:53:47;;;;;;;9.77;7.47;;;;;;;29.61;25.18;97269.38;6245813;23;20012;-80
2022/11/05 01:56:18;;;;;;;8.88;6.60;;;;;;;29.21;26.04;97276.47;6246718;22;20463;-80
2022/11/05 01:58:48;;;;;;;14.35;9.23;;;;;;;27.02;29.56;97283.94;6244361;23;20008;-79
2022/11/05 02:01:15;;;;;;;14.13;9.30;;;;;;;27.43;28.45;97285.25;6245197;23;20345;-80
2022/11/05 02:03:43;;;;;;;13.70;9.80;;;;;;;26.83;29.96;97284.44;6244877;23;20040;-80
2022/11/05 02:06:10;;;;;;;15.98;11.00;;;;;;;26.90;29.77;97295.38;6245925;22;20011;-80
2022/11/05 02:09:14;;;;;;;16.83;10.40;;;;;;;27.49;28.80;97288.22;6245290;22;20426;-79
2022/11/05 02:11:40;;;;;;;13.70;9.50;;;;;;;28.34;27.08;97296.03;6245198;22;20031;-80
2022/11/05 02:14:06;;;;;;;14.85;10.43;;;;;;;27.21;29.12;97302.34;6243568;23;20004;-80
2022/11/05 02:16:53;;;;;;;18.48;11.65;;;;;;;27.00;29.41;97305.41;6245447;23;20374;-80
2022/11/05 02:20:01;;;;;;;17.73;11.13;;;;;;;28.04;27.73;97298.75;6245394;23;20345;-80
2022/11/05 02:22:47;;;;;;;18.10;11.82;;;;;;;28.31;27.12;97303.44;6246063;22;20057;-79
2022/11/05 02:25:40;;;;;;;19.08;12.75;;;;;;;28.31;26.98;97309.06;6244890;22;20016;-79
2022/11/05 02:28:18;;;;;;;14.73;10.98;;;;;;;27.97;27.77;97316.03;6243477;23;20023;-80
2022/11/05 02:30:44;;;;;;;14.75;9.57;;;;;;;28.01;27.69;97315.88;6245118;23;20434;-80
2022/11/05 02:33:16;;;;;;;15.48;10.30;;;;;;;27.16;28.59;97316.31;6244716;23;20030;-79
2022/11/05 02:36:05;;;;;;;16.63;9.55;;;;;;;26.64;29.22;97317.44;6244244;23;20341;-80
2022/11/05 02:39:08;;;;;;;15.63;10.73;;;;;;;26.51;29.67;97317.59;6227328;23;20051;-79
2022/11/05 02:41:46;;;;;;;11.32;8.15;;;;;;;27.25;28.30;97321.94;6244239;23;20346;-79
2022/11/05 02:44:29;;;;;;;11.95;7.70;;;;;;;27.52;27.57;97326.72;6245259;23;20012;-79
2022/11/05 02:47:25;;;;;;;8.63;6.65;;;;;;;27.23;28.46;97336.50;6245809;23;20453;-79
2022/11/05 02:50:17;;;;;;;14.13;7.43;;;;;;;27.13;28.09;97346.22;6245605;22;20521;-79
2022/11/05 02:52:57;;;;;;;10.40;7.72;;;;;;;25.92;29.95;97357.50;6245188;22;20016;-79
2022/11/05 02:55:44;;;;;;;;;;;;;;;26.16;29.19;97350.09;6247096;22;20016;-79
2022/11/05 02:58:10;;;;;;;9.57;6.90;;;;;;;24.43;31.41;97364.31;6245084;22;19907;-80
2022/11/05 03:00:54;;;;;;;8.10;5.95;;;;;;;24.36;32.73;97378.56;6245294;22;20078;-80
2022/11/05 03:03:35;;;;;;;6.72;5.03;;;;;;;24.69;30.80;97377.78;6245126;22;20011;-80
2022/11/05 03:06:38;;;;;;;6.05;4.97;;;;;;;24.94;30.11;97393.00;6244590;22;20442;-79
2022/11/05 03:09:37;;;;;;;4.68;3.90;;;;;;;25.29;29.32;97398.09;6243208;23;20008;-79
2022/11/05 03:12:29;;;;;;;3.88;3.38;;;;;;;25.34;29.67;97403.09;6246030;22;20034;-79
2022/11/05 03:15:18;;;;;;;3.97;3.13;;;;;;;25.40;29.01;97392.84;6245478;22;20023;-79
2022/11/05 03:18:20;;;;;;;4.93;2.92;;;;;;;25.87;28.25;97403.88;6246011;23;20008;-79
2022/11/05 03:20:50;;;;;;;3.00;2.50;;;;;;;25.82;28.33;97406.50;6225042;22;20008;-79
2022/11/05 03:23:26;;;;;;;;;;;;;;;24.95;29.00;97417.81;6245494;22;20020;-79
2022/11/05 03:26:17;;;;;;;2.25;2.05;;;;;;;25.73;28.46;97404.44;6244545;22;19985;-79
2022/11/05 03:28:49;;;;;;;3.20;1.90;;;;;;;26.74;26.61;97409.16;6245955;22;20035;-79
2022/11/05 03:31:16;;;;;;;2.35;1.90;;;;;;;26.70;26.62;97426.19;6246340;22;20004;-79
2022/11/05 03:33:45;;;;;;;1.50;1.40;;;;;;;25.82;27.73;97432.63;6245933;22;20004;-79
2022/11/05 03:36:17;;;;;;;2.17;1.90;;;;;;;26.98;25.92;97424.19;6246116;22;20115;-79
2022/11/05 03:38:48;;;;;;;2.20;1.77;;;;;;;25.77;28.05;97438.84;6246170;22;20137;-79
2022/11/05 03:41:16;;;;;;;1.60;1.50;;;;;;;27.31;25.80;97419.47;6245408;22;20008;-79
2022/11/05 03:43:47;;;;;;;1.90;1.60;;;;;;;27.23;26.19;97428.75;6245357;22;20008;-79
2022/11/05 03:46:40;;;;;;;1.85;1.58;;;;;;;27.40;25.34;97444.06;6245677;22;20083;-79
2022/11/05 03:49:10;;;;;;;1.80;1.70;;;;;;;26.12;26.77;97453.56;6245934;22;20441;-79
2022/11/05 03:51:44;;;;;;;1.38;1.27;;;;;;;26.07;27.31;97454.13;6245665;22;20004;-79
2022/11/05 03:54:11;;;;;;;1.40;1.30;;;;;;;26.20;26.98;97457.66;6245025;22;20414;-79
2022/11/05 03:56:53;;;;;;;1.30;1.20;;;;;;;26.96;25.88;97448.44;6245333;22;20450;-79
2022/11/05 03:59:21;;;;;;;1.25;1.20;;;;;;;26.99;25.82;97442.69;6245223;22;20004;-79
2022/11/05 04:01:48;;;;;;;3.28;1.52;;;;;;;27.53;24.77;97435.44;6244108;23;20085;-79
2022/11/05 04:04:14;;;;;;;1.30;1.20;;;;;;;27.45;24.79;97442.66;6245273;22;20014;-79
2022/11/05 04:14:54;;;;;;;1.75;0.90;;;;;;;29.13;22.61;97456.19;6245351;23;20027;-79
2022/11/05 04:17:20;;;;;;;0.70;0.70;;;;;;;28.58;23.15;97457.81;6243498;23;20337;-79
2022/11/05 04:25:19;;;;;;;0.70;0.70;;;;;;;29.19;22.78;97459.16;6246159;23;20027;-79
2022/11/05 04:27:45;;;;;;;0.65;0.65;;;;;;;29.31;22.37;97458.13;6245105;22;20015;-79
2022/11/05 04:30:19;;;;;;;0.60;0.60;;;;;;;29.22;22.28;97458.97;6245122;22;20067;-79
2022/11/05 04:33:06;;;;;;;0.70;0.65;;;;;;;29.01;22.87;97462.13;6244477;22;20015;-79
2022/11/05 04:35:43;;;;;;;2.47;0.65;;;;;;;29.13;22.84;97470.31;6244860;22;20099;-79
2022/11/05 04:38:12;;;;;;;0.50;0.50;;;;;;;29.13;22.69;97467.50;6241824;22;20012;-79
2022/11/05 04:40:38;;;;;;;1.13;0.60;;;;;;;28.42;23.06;97466.69;6246233;22;20089;-79
2022/11/05 04:43:06;;;;;;;0.70;0.70;;;;;;;28.57;22.99;97476.78;6244340;22;20012;-80
2022/11/05 04:45:33;;;;;;;0.85;0.75;;;;;;;28.55;22.90;97476.50;6244828;22;20016;-79
2022/11/05 04:48:03;;;;;;;0.70;0.70;;;;;;;28.89;22.64;97482.94;6243363;22;20501;-79
2022/11/05 04:50:30;;;;;;;0.77;0.70;;;;;;;29.12;22.25;97487.78;6244247;22;20008;-79
2022/11/05 04:52:56;;;;;;;0.80;0.80;;;;;;;28.64;22.38;97495.47;6244418;22;20007;-79
2022/11/05 04:55:23;;;;;;;0.70;0.70;;;;;;;28.58;22.69;97494.53;6244626;23;20078;-79
2022/11/05 04:57:50;;;;;;;0.60;0.60;;;;;;;28.70;22.70;97488.69;6243435;22;20087;-79
2022/11/05 05:00:18;;;;;;;0.60;0.60;;;;;;;28.84;22.26;97489.22;6245281;22;20012;-79
2022/11/05 05:02:45;;;;;;;0.55;0.47;;;;;;;28.82;22.40;97492.56;6244744;22;20038;-79
2022/11/05 05:05:11;;;;;;;0.80;0.80;;;;;;;28.08;23.02;97506.69;6245975;22;20341;-79
2022/11/05 05:07:37;;;;;;;0.32;0.32;;;;;;;28.13;23.16;97500.38;6245984;22;20012;-79
2022/11/05 05:10:06;;;;;;;0.90;0.50;;;;;;;28.31;23.09;97501.06;6245947;23;20008;-79
2022/11/05 05:12:32;;;;;;;0.50;0.50;;;;;;;28.55;22.71;97499.09;6246488;22;20012;-79
2022/11/05 05:14:58;;;;;;;0.70;0.47;;;;;;;28.97;22.26;97510.34;6246848;22;20035;-79
2022/11/05 05:17:24;;;;;;;1.58;0.82;;;;;;;29.19;21.98;97513.69;6246647;23;20008;-79
2022/11/05 05:22:36;;;;;;;0.40;0.40;;;;;;;29.81;21.43;97516.47;6246084;23;20023;-79
2022/11/05 05:25:03;;;;;;;0.40;0.40;;;;;;;30.02;21.32;97520.19;6245997;22;20438;-80
2022/11/05 05:27:29;;;;;;;0.40;0.35;;;;;;;30.14;21.03;97516.28;6245798;22;20012;-80
2022/11/05 05:29:57;;;;;;;0.40;0.40;;;;;;;30.23;20.87;97521.03;6246196;23;20008;-80
2022/11/05 05:32:23;;;;;;;0.40;0.40;;;;;;;30.24;20.67;97522.63;6246342;22;20005;-80
2022/11/05 05:34:49;;;;;;;0.63;0.40;;;;;;;29.94;21.02;97519.78;6244233;23;20004;-80
2022/11/05 05:37:16;;;;;;;0.30;0.30;;;;;;;29.61;21.42;97526.84;6244557;23;20091;-80
2022/11/05 05:39:43;;;;;;;0.30;0.30;;;;;;;29.50;21.48;97532.28;6245937;23;20000;-81
2022/11/05 05:42:10;;;;;;;0.50;0.50;;;;;;;28.75;22.05;97527.56;6246445;22;20010;-79
2022/11/05 05:44:37;;;;;;;0.32;0.32;;;;;;;28.28;22.75;97532.31;6246402;22;20040;-80
2022/11/05 05:47:03;;;;;;;0.57;0.40;;;;;;;27.95;23.62;97535.84;6244854;22;20008;-80
2022/11/05 05:49:29;;;;;;;0.40;0.40;;;;;;;27.98;23.34;97534.88;6246611;23;20010;-80
2022/11/05 05:51:55;;;;;;;2.53;0.43;;;;;;;27.62;23.44;97554.69;6246114;23;20008;-80
2022/11/05 05:54:21;;;;;;;0.43;0.43;;;;;;;27.04;24.37;97562.44;6243221;23;20016;-81
2022/11/05 05:56:48;;;;;;;0.40;0.40;;;;;;;27.72;23.71;97569.56;6245887;23;20008;-80
2022/11/05 05:59:14;;;;;;;0.47;0.47;;;;;;;27.64;23.45;97568.31;6245638;23;20004;-80
2022/11/05 06:01:40;;;;;;;0.70;0.63;;;;;;;27.31;23.85;97573.75;6246694;23;20015;-80
2022/11/05 06:04:08;;;;;;;0.30;0.30;;;;;;;27.24;24.30;97569.19;6244961;23;20035;-80
2022/11/05 06:06:34;;;;;;;1.40;0.60;;;;;;;27.50;23.93;97592.28;6246693;22;20011;-80
2022/11/05 06:09:00;;;;;;;0.70;0.47;;;;;;;27.56;23.83;97581.97;6245542;23;20076;-80
2022/11/05 06:11:26;;;;;;;0.55;0.55;;;;;;;26.90;24.68;97582.75;6243917;23;20011;-80
2022/11/05 06:13:52;;;;;;;0.77;0.55;;;;;;;26.71;25.07;97587.50;6244695;23;20079;-81
2022/11/05 06:16:19;;;;;;;0.50;0.50;;;;;;;26.57;24.99;97594.50;6246231;23;20444;-81
2022/11/05 06:18:45;;;;;;;1.13;0.60;;;;;;;26.42;25.39;97601.91;6246109;22;20054;-80
2022/11/05 06:21:14;;;;;;;0.65;0.60;;;;;;;26.59;25.31;97611.72;6245935;22;20008;-80
2022/11/05 06:23:43;;;;;;;0.57;0.57;;;;;;;26.06;25.86;97612.94;6245020;22;20043;-81
2022/11/05 06:26:14;;;;;;;1.08;0.82;;;;;;;26.18;25.96;97623.38;6244583;23;20012;-80
2022/11/05 06:28:41;;;;;;;0.75;0.65;;;;;;;26.28;25.95;97624.97;6244367;23;20142;-81
2022/11/05 06:31:07;;;;;;;0.73;0.73;;;;;;;25.93;26.64;97620.66;6245335;22;20037;-80
2022/11/05 06:33:33;;;;;;;0.90;0.90;;;;;;;25.90;26.48;97624.41;6245609;22;20381;-81
2022/11/05 06:36:01;;;;;;;0.75;0.73;;;;;;;26.70;25.57;97625.34;6244310;23;20022;-81
2022/11/05 06:38:30;;;;;;;0.80;0.70;;;;;;;27.60;24.20;97624.88;6245923;22;20008;-81
2022/11/05 06:40:58;;;;;;;0.55;0.50;;;;;;;27.97;23.89;97625.66;6245107;22;20061;-81
2022/11/05 06:43:25;;;;;;;2.58;0.80;;;;;;;28.32;23.12;97631.75;6245049;22;20013;-81
2022/11/05 06:45:51;;;;;;;0.55;0.55;;;;;;;28.37;23.34;97636.78;6245274;22;20774;-81
2022/11/05 06:48:17;;;;;;;1.15;0.68;;;;;;;28.26;23.17;97636.47;6244610;23;20035;-81
2022/11/05 06:50:44;;;;;;;0.52;0.40;;;;;;;28.61;23.17;97641.28;6244664;23;20008;-81
2022/11/05 06:53:11;;;;;;;0.60;0.60;;;;;;;28.84;22.63;97647.50;6245558;22;20058;-81
2022/11/05 06:55:37;;;;;;;0.60;0.60;;;;;;;28.77;22.73;97645.78;6244114;22;20016;-81
2022/11/05 06:58:03;;;;;;;0.43;0.43;;;;;;;28.70;23.06;97652.56;6245866;23;20016;-81
2022/11/05 07:00:29;;;;;;;0.63;0.60;;;;;;;28.38;23.27;97661.69;6244247;23;20430;-82
2022/11/05 07:03:02;;;;;;;0.63;0.50;;;;;;;28.44;23.41;97664.69;6245482;23;20016;-81
2022/11/05 07:05:28;;;;;;;0.63;0.63;;;;;;;28.14;23.56;97677.75;6244157;23;20311;-81
2022/11/05 07:07:54;;;;;;;0.65;0.60;;;;;;;28.42;23.22;97676.47;6245014;23;20376;-81
2022/11/05 07:10:20;;;;;;;0.50;0.50;;;;;;;28.49;23.20;97675.34;6243265;23;20031;-81
2022/11/05 07:12:46;;;;;;;0.65;0.60;;;;;;;28.35;23.52;97679.59;6243043;23;20008;-81
2022/11/05 07:15:12;;;;;;;0.43;0.43;;;;;;;27.86;24.02;97685.41;6244094;23;20015;-82
2022/11/05 07:17:39;;;;;;;0.60;0.60;;;;;;;27.88;24.03;97690.56;6242514;23;20287;-81
2022/11/05 07:20:07;;;;;;;0.47;0.47;;;;;;;28.05;24.28;97686.22;6243529;22;20008;-84
2022/11/05 07:22:34;;;;;;;1.08;0.60;;;;;;;27.57;24.33;97698.34;6245541;22;20434;-82
2022/11/05 07:25:00;;;;;;;0.50;0.50;;;;;;;27.30;24.91;97699.84;6242703;22;20044;-81
2022/11/05 07:27:26;;;;;;;0.85;0.50;;;;;;;26.70;25.94;97699.38;6243544;22;20008;-84
2022/11/05 07:29:52;;;;;;;0.60;0.60;;;;;;;26.56;25.98;97693.50;6245744;23;20011;-81
2022/11/05 07:32:18;;;;;;;0.60;0.60;;;;;;;26.81;26.13;97701.81;6243822;22;20062;-82
2022/11/05 07:34:44;;;;;;;2.35;0.80;;;;;;;26.95;25.67;97698.44;6245511;23;20418;-81
2022/11/05 07:37:15;;;;;;;1.30;0.65;;;;;;;26.66;26.15;97692.31;6245820;23;20011;-82
2022/11/05 07:39:50;;;;;;;0.75;0.60;;;;;;;26.57;26.11;97700.72;6244743;22;20027;-82
2022/11/05 07:42:16;;;;;;;0.95;0.50;;;;;;;27.10;25.21;97707.09;6245689;22;20004;-81
2022/11/05 07:44:42;;;;;;;0.50;0.50;;;;;;;27.52;25.04;97702.56;6245138;23;20438;-82
2022/11/05 07:47:08;;;;;;;1.08;0.50;;;;;;;27.35;25.03;97704.09;6244870;23;20019;-82
2022/11/05 07:49:34;;;;;;;0.60;0.60;;;;;;;26.42;26.16;97713.75;6244602;23;20058;-82
2022/11/05 07:52:00;;;;;;;1.20;0.60;;;;;;;26.13;26.81;97707.59;6244075;23;20334;-82
2022/11/05 07:54:26;;;;;;;0.73;0.63;;;;;;;26.57;26.09;97714.78;6243064;23;20020;-81
2022/11/05 07:56:52;;;;;;;0.90;0.60;;;;;;;26.42;26.32;97708.91;6243541;22;20004;-82
2022/11/05 07:59:18;;;;;;;1.05;0.70;;;;;;;25.93;26.80;97708.63;6245479;23;20008;-82
2022/11/05 08:01:44;;;;;;;0.70;0.60;;;;;;;26.67;26.13;97708.75;6245282;23;20009;-82
2022/11/05 08:04:10;;;;;;;0.40;0.40;;;;;;;25.70;27.40;97711.06;6243450;23;20442;-82
2022/11/05 08:06:36;;;;;;;1.05;0.65;;;;;;;26.35;26.61;97719.66;6242840;23;20015;-82
2022/11/05 08:09:02;;;;;;;0.70;0.70;;;;;;;26.29;26.37;97716.63;6243981;23;20013;-83
2022/11/05 08:11:30;;;;;;;1.00;0.88;;;;;;;25.89;26.73;97722.06;6243603;23;20101;-82
2022/11/05 08:13:56;;;;;;;1.23;1.00;;;;;;;25.96;26.65;97721.00;6244843;22;20012;-83
2022/11/05 08:16:22;;;;;;;0.90;0.75;;;;;;;25.85;26.74;97735.47;6245197;23;20075;-83
2022/11/05 08:18:48;;;;;;;0.80;0.80;;;;;;;25.59;27.39;97738.78;6244578;22;20015;-83
2022/11/05 08:21:14;;;;;;;0.73;0.73;;;;;;;26.43;26.28;97729.41;6245521;22;20004;-82
2022/11/05 08:23:41;;;;;;;2.78;0.90;;;;;;;26.45;26.13;97732.53;6242806;23;20040;-82
2022/11/05 08:26:09;;;;;;;0.73;0.63;;;;;;;26.02;26.80;97742.47;6245427;22;20038;-80
2022/11/05 08:28:35;;;;;;;1.10;1.00;;;;;;;26.21;26.49;97745.50;6244984;22;20516;-80
2022/11/05 08:31:01;;;;;;;0.93;0.90;;;;;;;25.50;27.96;97742.28;6243903;23;20441;-82
2022/11/05 08:33:30;;;;;;;1.20;1.20;;;;;;;25.64;27.12;97747.44;6243549;23;20158;-80
2022/11/05 08:36:00;;;;;;;1.00;0.85;;;;;;;24.82;28.52;97747.63;6242471;22;20464;-80
2022/11/05 08:38:26;;;;;;;0.80;0.80;;;;;;;25.13;28.28;97749.47;6245851;22;20394;-82
2022/11/05 08:40:57;;;;;;;1.65;0.80;;;;;;;25.98;27.07;97753.06;6247595;23;20011;-81
2022/11/05 08:43:23;;;;;;;;;;;;;;;25.85;26.54;97757.19;6247908;23;20008;-81
2022/11/05 08:45:53;;;;;;;1.05;1.02;;;;;;;26.20;26.19;97753.16;6247870;22;19908;-81
2022/11/05 08:48:19;;;;;;;1.25;0.90;;;;;;;26.11;26.63;97766.34;6247094;22;20083;-81
2022/11/05 08:50:47;;;;;;;1.02;1.00;;;;;;;26.61;25.87;97761.28;6246919;23;20402;-81
2022/11/05 08:53:19;;;;;;;1.10;1.00;;;;;;;26.68;26.13;97763.03;6247205;22;20004;-81
2022/11/05 08:55:48;;;;;;;1.42;1.00;;;;;;;26.37;25.99;97762.22;6247453;22;20087;-82
2022/11/05 08:58:20;;;;;;;0.85;0.82;;;;;;;26.30;26.58;97762.47;6247412;22;20004;-83
2022/11/05 09:00:48;;;;;;;0.60;0.60;;;;;;;26.51;26.30;97772.94;6247593;23;20488;-82
2022/11/05 09:03:15;;;;;;;1.98;0.98;;;;;;;26.64;26.02;97773.66;6247830;22;20008;-81
2022/11/05 09:05:41;;;;;;;0.80;0.80;;;;;;;27.16;25.41;97772.91;6247007;22;20480;-82
2022/11/05 09:08:10;;;;;;;1.25;0.90;;;;;;;26.64;25.80;97780.09;6245799;22;20012;-81
2022/11/05 09:10:37;;;;;;;1.33;0.80;;;;;;;26.94;25.56;97781.41;6247302;22;20015;-82
2022/11/05 09:13:03;;;;;;;4.38;0.90;;;;;;;26.34;26.23;97782.81;6247676;22;20024;-82
2022/11/05 09:15:30;;;;;;;0.75;0.75;;;;;;;26.94;25.61;97787.03;6247259;23;20039;-80
2022/11/05 09:17:56;;;;;;;1.00;1.00;;;;;;;26.69;25.79;97784.34;6247067;22;20134;-81
2022/11/05 09:20:23;;;;;;;1.20;1.10;;;;;;;26.85;25.44;97784.16;6245153;23;20350;-81
2022/11/05 09:22:49;;;;;;;0.85;0.85;;;;;;;26.91;25.92;97781.53;6247112;23;20008;-81
2022/11/05 09:25:15;;;;;;;1.75;1.00;;;;;;;27.51;24.99;97784.84;6246731;23;20016;-81
2022/11/05 09:27:42;;;;;;;0.98;0.90;;;;;;;26.92;25.86;97788.72;6247582;22;20004;-81
2022/11/05 09:30:09;;;;;;;1.42;0.98;;;;;;;27.36;25.26;97796.66;6245331;22;20012;-81
2022/11/05 09:32:36;;;;;;;1.13;1.02;;;;;;;27.43;25.28;97798.44;6242703;23;20004;-82
2022/11/05 09:35:02;;;;;;;1.30;1.20;;;;;;;27.40;25.22;97802.16;6243257;23;20494;-82
2022/11/05 09:37:28;;;;;;;1.45;1.35;;;;;;;27.34;25.11;97807.59;6244562;22;20055;-81
2022/11/05 09:39:54;;;;;;;1.83;1.40;;;;;;;27.19;25.44;97803.75;6241532;23;20087;-81
2022/11/05 09:42:30;;;;;;;1.25;1.05;;;;;;;26.90;25.87;97808.13;6244142;23;20004;-81
2022/11/05 09:45:07;;;;;;;1.50;1.30;;;;;;;26.96;25.77;97809.91;6242797;22;20468;-82
2022/11/05 09:47:50;;;;;;;0.93;0.93;;;;;;;27.36;25.50;97804.31;6243263;22;20012;-81
2022/11/05 09:50:27;;;;;;;1.52;1.10;;;;;;;27.75;25.05;97809.19;6242031;22;20008;-81
2022/11/05 09:52:53;;;;;;;1.40;1.30;;;;;;;27.55;25.07;97806.00;6244971;22;20079;-80
2022/11/05 09:55:31;;;;;;;3.10;1.38;;;;;;;27.82;24.96;97808.91;6244130;23;20016;-80
2022/11/05 09:58:01;;;;;;;1.40;1.02;;;;;;;26.99;25.94;97811.00;6244415;22;20385;-81
2022/11/05 10:00:30;;;;;;;1.30;1.00;;;;;;;27.02;25.67;97804.47;6244516;22;20004;-81
2022/11/05 10:03:21;;;;;;;1.75;1.00;;;;;;;27.09;25.97;97810.63;6243536;22;20043;-81
2022/11/05 10:05:49;;;;;;;1.30;1.05;;;;;;;26.78;26.31;97814.63;6245594;22;20015;-81
2022/11/05 10:08:28;;;;;;;1.05;1.00;;;;;;;27.23;25.97;97812.09;6245377;22;20456;-80
2022/11/05 10:11:02;;;;;;;1.65;1.55;;;;;;;26.69;26.13;97818.94;6246478;22;20087;-79
2022/11/05 10:13:42;;;;;;;1.30;1.00;;;;;;;26.48;26.66;97810.47;6243529;22;20008;-79
2022/11/05 10:16:25;;;;;;;1.48;1.20;;;;;;;26.98;25.80;97824.31;6245819;22;20070;-80
2022/11/05 10:18:57;;;;;;;1.08;1.00;;;;;;;27.27;26.08;97818.38;6246114;22;20430;-79
2022/11/05 10:21:23;;;;;;;0.82;0.82;;;;;;;26.98;26.13;97820.72;6245636;22;20026;-80
2022/11/05 10:23:50;;;;;;;1.00;0.98;;;;;;;26.24;26.72;97821.34;6245919;23;20344;-79
2022/11/05 10:26:22;;;;;;;1.00;1.00;;;;;;;26.14;27.38;97830.19;6246175;22;20012;-79
2022/11/05 10:28:50;;;;;;;1.10;1.00;;;;;;;26.86;26.35;97824.41;6245711;22;20009;-79
2022/11/05 10:31:21;;;;;;;0.98;0.90;;;;;;;27.49;25.92;97827.59;6243921;22;20032;-80
2022/11/05 10:33:53;;;;;;;0.85;0.85;;;;;;;27.21;25.90;97829.44;6246123;22;20461;-79
2022/11/05 10:36:26;;;;;;;0.85;0.85;;;;;;;27.39;25.81;97831.63;6246301;22;20008;-80
2022/11/05 10:38:57;;;;;;;1.27;0.90;;;;;;;27.15;25.90;97830.50;6246240;22;20004;-80
2022/11/05 10:41:23;;;;;;;;;;;;;;;27.36;25.39;97832.50;6246157;22;20091;-80
2022/11/05 10:44:05;;;;;;;0.90;0.90;;;;;;;27.20;25.75;97844.81;6244164;23;19943;-80
2022/11/05 10:46:47;;;;;;;1.20;1.10;;;;;;;27.53;25.69;97839.53;6245257;22;20010;-80
2022/11/05 10:49:46;;;;;;;1.42;1.13;;;;;;;28.10;24.94;97842.88;6245839;22;20027;-79
2022/11/05 10:52:35;;;;;;;1.73;1.17;;;;;;;28.49;24.76;97847.66;6246106;22;20011;-80
2022/11/05 10:55:20;;;;;;;1.27;1.17;;;;;;;27.98;25.31;97850.19;6245509;22;20016;-80
2022/11/05 10:57:48;;;;;;;1.70;1.50;;;;;;;27.88;25.10;97846.56;6245534;23;20426;-80
2022/11/05 11:00:14;;;;;;;3.63;1.17;;;;;;;28.23;24.84;97843.53;6243855;22;20012;-80
2022/11/05 11:02:42;;;;;;;1.50;1.40;;;;;;;28.32;24.48;97855.63;6244274;22;20511;-81
2022/11/05 11:05:20;;;;;;;1.88;1.55;;;;;;;28.26;24.87;97853.91;6244320;22;20083;-80
2022/11/05 11:08:16;;;;;;;1.77;1.38;;;;;;;28.55;24.36;97852.19;6244692;22;20031;-80
2022/11/05 11:10:54;;;;;;;1.85;1.65;;;;;;;28.15;24.62;97856.34;6244162;22;20091;-81
2022/11/05 11:13:23;;;;;;;1.60;1.50;;;;;;;28.12;24.64;97858.09;6243425;22;20503;-80
2022/11/05 11:15:50;;;;;;;1.83;1.50;;;;;;;27.91;25.17;97858.97;6243737;23;20016;-80
2022/11/05 11:18:37;;;;;;;2.67;1.77;;;;;;;28.38;24.84;97862.22;6244558;22;20142;-80
2022/11/05 11:21:14;;;;;;;1.73;1.60;;;;;;;28.30;24.87;97858.13;6245429;22;20083;-80
2022/11/05 11:23:42;;;;;;;2.90;1.92;;;;;;;27.16;25.74;97861.09;6244500;22;20026;-80
2022/11/05 11:26:10;;;;;;;2.13;1.92;;;;;;;27.06;26.06;97865.06;6243771;22;20441;-80
2022/11/05 11:28:44;;;;;;;2.10;2.00;;;;;;;26.56;26.70;97862.44;6244433;22;20078;-81
2022/11/05 11:31:15;;;;;;;1.45;1.35;;;;;;;27.13;26.30;97861.19;6244237;22;20004;-81
2022/11/05 11:33:45;;;;;;;2.00;1.80;;;;;;;27.04;26.35;97861.13;6246143;22;20004;-80
2022/11/05 11:36:15;;;;;;;1.70;1.60;;;;;;;27.73;25.65;97870.16;6245316;22;20012;-80
2022/11/05 11:38:41;;;;;;;5.35;2.17;;;;;;;27.47;25.49;97869.56;6245818;22;20031;-81
2022/11/05 11:41:19;;;;;;;1.75;1.63;;;;;;;27.40;25.81;97873.44;6245547;22;20016;-80
2022/11/05 11:43:45;;;;;;;2.90;2.40;;;;;;;27.34;25.78;97869.63;6245331;23;20016;-81
2022/11/05 11:46:18;;;;;;;2.38;1.92;;;;;;;27.20;26.52;97860.94;6243825;23;20012;-81
2022/11/05 11:48:47;;;;;;;3.22;2.53;;;;;;;26.82;26.46;97871.59;6245122;22;20008;-80
2022/11/05 11:51:43;;;;;;;1.85;1.60;;;;;;;27.10;26.51;97865.72;6245704;22;20012;-80
2022/11/05 11:54:23;;;;;;;2.22;1.80;;;;;;;26.70;26.70;97868.38;6245449;22;20087;-80
2022/11/05 11:56:49;;;;;;;3.05;2.75;;;;;;;26.09;27.40;97882.91;6245030;22;20032;-81
2022/11/05 11:59:24;;;;;;;2.53;2.33;;;;;;;26.20;27.39;97876.97;6245150;23;20004;-80
2022/11/05 12:02:29;;;;;;;1.73;1.63;;;;;;;26.83;26.89;97882.44;6244470;22;20011;-80
2022/11/05 12:05:15;;;;;;;2.05;1.85;;;;;;;27.17;26.06;97887.22;6243903;23;20007;-80
2022/11/05 12:07:51;;;;;;;2.70;2.50;;;;;;;26.45;27.38;97888.19;6245434;23;20012;-80
2022/11/05 12:10:27;;;;;;;2.70;2.50;;;;;;;26.68;26.79;97887.75;6245422;22;20012;-81
2022/11/05 12:13:17;;;;;;;2.72;2.33;;;;;;;26.04;27.64;97891.16;6245407;22;20004;-80
2022/11/05 12:15:54;;;;;;;2.28;2.08;;;;;;;26.15;27.52;97890.81;6244284;23;20509;-80
2022/11/05 12:18:24;;;;;;;2.90;2.63;;;;;;;26.37;27.13;97886.84;6245528;22;20017;-80
2022/11/05 12:21:07;;;;;;;2.72;2.25;;;;;;;25.99;27.49;97889.72;6246211;22;20071;-80
2022/11/05 12:23:58;;;;;;;4.30;2.03;;;;;;;26.26;27.15;97900.50;6245840;23;20076;-80
2022/11/05 12:26:57;;;;;;;2.75;2.55;;;;;;;25.75;27.89;97902.53;6245229;23;20083;-79
2022/11/05 12:29:26;;;;;;;4.53;2.92;;;;;;;26.37;27.03;97902.97;6242943;22;20012;-80
2022/11/05 12:32:16;;;;;;;3.08;2.10;;;;;;;26.50;26.91;97910.13;6244865;22;20008;-80